Time;durP1;ratioP1;P1;durP2;ratioP2;P2;SDS_P1;SDS_P2;PMS_P1;PMS_P2;Temp;Humidity;BMP_temperature;BMP_pressure;BME280_temperature;BME280_humidity;BME280_pressure;Samples;Min_cycle;Max_cycle;Signal;HPM_P1;HPM_P2
2021/01/31 00:04:23;;;;;;;7.07;3.85;;;1.30;99.90;;;;;;6690519;88;20517;-73
2021/01/31 00:14:24;;;;;;;5.53;2.95;;;1.30;99.90;;;;;;6691087;88;20502;-73
2021/01/31 00:24:25;;;;;;;8.95;4.15;;;1.30;99.90;;;;;;6697077;88;20228;-74
2021/01/31 00:34:25;;;;;;;8.07;4.00;;;1.10;99.90;;;;;;6699364;88;20206;-73
2021/01/31 00:44:26;;;;;;;7.60;3.90;;;1.10;99.90;;;;;;6692000;88;21126;-73
2021/01/31 00:54:26;;;;;;;6.32;3.33;;;1.10;99.90;;;;;;6693074;88;20269;-74
2021/01/31 01:04:27;;;;;;;5.45;3.00;;;1.20;99.90;;;;;;6694232;88;20256;-73
2021/01/31 01:14:27;;;;;;;6.50;3.33;;;1.20;99.90;;;;;;6695358;88;20206;-74
2021/01/31 01:24:28;;;;;;;6.95;3.55;;;1.10;99.90;;;;;;6692143;88;20280;-74
2021/01/31 01:34:28;;;;;;;8.93;4.00;;;1.00;99.90;;;;;;6694918;88;20332;-73
2021/01/31 01:44:29;;;;;;;8.10;3.65;;;1.10;99.90;;;;;;6696849;88;20197;-74
2021/01/31 01:54:35;;;;;;;7.87;4.10;;;1.10;99.90;;;;;;6691051;88;20187;-73
2021/01/31 02:04:36;;;;;;;8.27;4.00;;;1.10;99.90;;;;;;6693558;88;20663;-73
2021/01/31 02:14:37;;;;;;;8.80;4.20;;;1.10;99.90;;;;;;6691442;88;20694;-73
2021/01/31 02:25:01;;;;;;;8.77;4.22;;;1.00;99.90;;;;;;6694034;88;20345;-73
2021/01/31 02:35:20;;;;;;;9.25;4.50;;;0.90;99.90;;;;;;6692542;88;20774;-73
2021/01/31 02:45:28;;;;;;;9.57;4.72;;;0.70;99.90;;;;;;6690411;88;20197;-74
2021/01/31 02:55:40;;;;;;;8.32;3.87;;;0.70;99.90;;;;;;6692830;88;20171;-73
2021/01/31 03:05:45;;;;;;;10.77;4.93;;;0.60;99.90;;;;;;6696519;88;20174;-74
2021/01/31 03:15:55;;;;;;;12.55;5.53;;;0.50;99.90;;;;;;6694890;88;20182;-74
2021/01/31 03:26:01;;;;;;;11.80;5.62;;;0.40;99.90;;;;;;6694207;88;20227;-74
2021/01/31 03:36:02;;;;;;;12.90;5.70;;;0.30;99.90;;;;;;6695512;88;20311;-74
2021/01/31 03:46:16;;;;;;;12.75;5.75;;;0.20;99.90;;;;;;6697715;88;20215;-73
2021/01/31 03:56:21;;;;;;;16.23;5.62;;;0.10;99.90;;;;;;6699587;88;20247;-73
2021/01/31 04:06:26;;;;;;;14.30;6.10;;;0.00;99.90;;;;;;6695649;88;20183;-73
2021/01/31 04:16:39;;;;;;;12.95;5.53;;;-0.10;99.90;;;;;;6698195;88;20207;-73
2021/01/31 04:26:40;;;;;;;14.20;5.72;;;-0.20;99.90;;;;;;6695163;88;20190;-73
2021/01/31 04:36:41;;;;;;;11.85;5.78;;;-0.20;99.90;;;;;;6693770;88;20650;-75
2021/01/31 04:46:55;;;;;;;14.15;5.78;;;-0.20;99.90;;;;;;6695449;88;20204;-73
2021/01/31 04:57:14;;;;;;;13.77;5.95;;;-0.30;99.90;;;;;;6696705;88;20196;-73
2021/01/31 05:07:15;;;;;;;12.00;4.85;;;-0.30;99.90;;;;;;6695636;88;20186;-73
2021/01/31 05:17:17;;;;;;;13.90;6.00;;;-0.40;99.90;;;;;;6695989;88;20204;-74
2021/01/31 05:27:18;;;;;;;12.48;5.37;;;-0.50;99.90;;;;;;6691901;88;20186;-74
2021/01/31 05:37:26;;;;;;;12.00;5.90;;;-0.40;99.90;;;;;;6698334;88;20234;-74
2021/01/31 05:47:36;;;;;;;12.30;5.45;;;-0.40;99.90;;;;;;6694157;88;20365;-74
2021/01/31 05:57:37;;;;;;;14.20;5.40;;;-0.40;99.90;;;;;;6698480;88;20650;-73
2021/01/31 06:07:40;;;;;;;13.05;5.82;;;-0.40;99.90;;;;;;6699999;88;20267;-74
2021/01/31 06:17:42;;;;;;;11.15;5.15;;;-0.60;99.90;;;;;;6692190;88;20214;-74
2021/01/31 06:27:42;;;;;;;13.27;4.62;;;-0.60;99.90;;;;;;6695620;88;20199;-74
2021/01/31 06:37:58;;;;;;;12.90;5.60;;;-0.60;99.90;;;;;;6697822;88;20204;-74
2021/01/31 06:48:14;;;;;;;13.15;5.97;;;-0.70;99.90;;;;;;6698813;88;20639;-74
2021/01/31 06:58:35;;;;;;;14.27;6.30;;;-0.90;99.90;;;;;;6692059;88;20203;-74
2021/01/31 07:09:10;;;;;;;15.52;6.68;;;-0.90;99.90;;;;;;6694540;88;20174;-74
2021/01/31 07:19:40;;;;;;;16.12;5.97;;;-0.80;99.90;;;;;;6696871;88;20190;-74
2021/01/31 07:29:53;;;;;;;15.20;6.47;;;-0.90;99.90;;;;;;6695916;88;20250;-74
2021/01/31 07:40:03;;;;;;;15.48;6.60;;;-1.00;99.90;;;;;;6696637;88;20234;-75
2021/01/31 07:50:04;;;;;;;11.75;5.47;;;-1.00;99.90;;;;;;6698371;88;20353;-74
2021/01/31 08:00:19;;;;;;;12.75;5.90;;;-0.80;99.90;;;;;;6698856;88;20199;-75
2021/01/31 08:10:45;;;;;;;12.95;6.07;;;-0.70;99.90;;;;;;6697957;88;20214;-76
2021/01/31 08:20:47;;;;;;;14.25;5.93;;;-0.70;99.90;;;;;;6695038;88;20212;-75
2021/01/31 08:31:13;;;;;;;12.27;5.43;;;-0.60;99.90;;;;;;6692612;88;20243;-73
2021/01/31 08:41:25;;;;;;;13.10;6.05;;;-0.20;99.90;;;;;;6691429;88;20615;-75
2021/01/31 08:51:28;;;;;;;12.57;5.50;;;0.10;99.90;;;;;;6698279;88;20202;-75
2021/01/31 09:01:36;;;;;;;11.73;5.32;;;0.20;99.90;;;;;;6699088;88;20288;-75
2021/01/31 09:11:36;;;;;;;9.57;4.30;;;0.30;99.90;;;;;;6698363;88;20182;-74
2021/01/31 09:21:38;;;;;;;13.18;5.30;;;0.20;99.90;;;;;;6694201;88;20635;-75
2021/01/31 09:31:42;;;;;;;11.82;5.18;;;0.40;99.90;;;;;;6696354;88;20182;-75
2021/01/31 09:41:42;;;;;;;10.73;4.00;;;0.50;99.90;;;;;;6689672;88;20314;-76
2021/01/31 09:51:44;;;;;;;10.48;4.85;;;0.50;99.90;;;;;;6691043;88;20238;-74
2021/01/31 10:01:44;;;;;;;9.73;4.75;;;0.80;99.90;;;;;;6696612;88;20504;-76
2021/01/31 10:11:47;;;;;;;10.45;4.35;;;1.00;99.90;;;;;;6700300;88;20220;-75
2021/01/31 10:21:56;;;;;;;10.90;4.72;;;1.30;99.90;;;;;;6697433;88;20222;-74
2021/01/31 10:32:36;;;;;;;8.57;4.28;;;1.70;99.90;;;;;;6693443;88;20493;-74
2021/01/31 10:42:37;;;;;;;7.65;4.00;;;1.80;99.90;;;;;;6693372;88;20219;-75
2021/01/31 10:52:38;;;;;;;8.43;4.18;;;1.90;99.90;;;;;;6691902;88;21073;-74
2021/01/31 11:02:38;;;;;;;8.88;4.07;;;1.80;99.90;;;;;;6690664;88;20184;-74
2021/01/31 11:12:40;;;;;;;8.37;3.80;;;1.60;99.90;;;;;;6692490;88;20339;-75
2021/01/31 11:22:40;;;;;;;8.63;3.67;;;1.90;99.90;;;;;;6694245;88;20525;-74
2021/01/31 11:32:41;;;;;;;11.60;4.93;;;1.70;99.90;;;;;;6695025;88;20182;-74
2021/01/31 11:42:41;;;;;;;11.57;4.80;;;1.70;99.90;;;;;;6688491;88;20543;-74
2021/01/31 11:52:42;;;;;;;6.53;2.87;;;2.00;99.90;;;;;;6688876;88;20325;-74
2021/01/31 12:02:43;;;;;;;7.40;3.65;;;2.20;99.90;;;;;;6691940;88;20265;-73
2021/01/31 12:12:44;;;;;;;8.90;3.80;;;2.00;99.90;;;;;;6688815;88;21085;-74
2021/01/31 12:22:46;;;;;;;10.93;4.82;;;2.20;99.90;;;;;;6690612;88;20177;-75
2021/01/31 12:32:47;;;;;;;11.27;5.20;;;2.10;99.90;;;;;;6690337;88;20642;-73
2021/01/31 12:42:48;;;;;;;12.37;4.90;;;2.30;99.90;;;;;;6690025;88;20188;-73
2021/01/31 12:52:48;;;;;;;10.65;5.30;;;2.30;99.90;;;;;;6692329;88;20224;-73
2021/01/31 13:02:49;;;;;;;10.05;4.70;;;2.30;99.90;;;;;;6690914;88;20207;-73
2021/01/31 13:12:50;;;;;;;8.75;4.40;;;2.20;99.90;;;;;;6688526;88;20186;-73
2021/01/31 13:22:51;;;;;;;7.43;3.55;;;1.90;99.90;;;;;;6689415;88;20222;-72
2021/01/31 13:32:52;;;;;;;7.57;3.33;;;1.80;99.90;;;;;;6693906;88;20554;-73
2021/01/31 13:42:52;;;;;;;6.95;3.42;;;1.80;99.90;;;;;;6692667;88;20189;-72
2021/01/31 13:52:53;;;;;;;4.70;2.30;;;1.90;99.90;;;;;;6689717;88;20207;-74
2021/01/31 14:02:54;;;;;;;9.20;4.53;;;1.80;99.90;;;;;;6687586;88;20568;-72
2021/01/31 14:12:54;;;;;;;6.40;3.00;;;1.60;99.90;;;;;;6687535;88;20289;-73
2021/01/31 14:22:55;;;;;;;9.05;4.00;;;1.50;99.90;;;;;;6691119;88;20996;-73
2021/01/31 14:32:55;;;;;;;9.43;4.25;;;1.50;99.90;;;;;;6688288;88;20199;-73
2021/01/31 14:42:57;;;;;;;7.82;4.50;;;1.60;99.90;;;;;;6685310;88;20713;-73
2021/01/31 14:52:57;;;;;;;10.18;4.30;;;1.70;99.90;;;;;;6692618;88;20182;-75
2021/01/31 15:02:58;;;;;;;7.55;3.60;;;1.80;99.90;;;;;;6688436;88;20209;-73
2021/01/31 15:12:59;;;;;;;8.65;4.03;;;1.70;99.90;;;;;;6699956;88;20664;-73
2021/01/31 15:22:59;;;;;;;8.05;3.83;;;1.80;99.90;;;;;;6694055;88;20197;-74
2021/01/31 15:33:00;;;;;;;7.45;3.83;;;1.70;99.90;;;;;;6691551;88;21086;-74
2021/01/31 15:43:00;;;;;;;9.90;4.60;;;1.70;99.90;;;;;;6692492;88;20313;-75
2021/01/31 15:53:01;;;;;;;8.18;4.32;;;1.70;99.90;;;;;;6691211;88;20209;-74
2021/01/31 16:03:06;;;;;;;8.45;4.18;;;1.70;99.90;;;;;;6691320;88;20268;-74
2021/01/31 16:13:09;;;;;;;10.85;4.72;;;1.70;99.90;;;;;;6691747;88;20179;-74
2021/01/31 16:23:11;;;;;;;11.35;5.25;;;1.70;99.90;;;;;;6694169;88;20198;-74
2021/01/31 16:33:12;;;;;;;9.85;4.07;;;1.60;99.90;;;;;;6690515;88;20182;-74
2021/01/31 16:43:14;;;;;;;13.30;5.65;;;1.60;99.90;;;;;;6692794;88;20210;-74
2021/01/31 16:53:15;;;;;;;12.68;5.95;;;1.60;99.90;;;;;;6694249;88;20630;-76
2021/01/31 17:03:17;;;;;;;13.13;5.78;;;1.60;99.90;;;;;;6698308;88;20217;-75
2021/01/31 17:13:18;;;;;;;9.68;4.93;;;1.60;99.90;;;;;;6702741;88;20955;-74
2021/01/31 17:23:19;;;;;;;14.77;6.55;;;1.60;99.90;;;;;;6696402;88;20214;-76
2021/01/31 17:33:19;;;;;;;11.73;5.85;;;1.60;99.90;;;;;;6694972;88;20282;-76
2021/01/31 17:43:20;;;;;;;10.02;4.90;;;1.60;99.90;;;;;;6695481;88;20286;-76
2021/01/31 17:53:20;;;;;;;13.70;6.00;;;1.60;99.90;;;;;;6698656;88;20310;-76
2021/01/31 18:03:21;;;;;;;15.43;6.82;;;1.50;99.90;;;;;;6692165;88;20194;-77
2021/01/31 18:13:21;;;;;;;14.73;6.75;;;1.40;99.90;;;;;;6701985;88;20216;-77
2021/01/31 18:23:22;;;;;;;17.92;8.32;;;1.30;99.90;;;;;;6706585;88;20220;-77
2021/01/31 18:33:23;;;;;;;11.90;5.43;;;1.30;99.90;;;;;;6705610;88;20612;-78
2021/01/31 18:43:23;;;;;;;15.93;7.25;;;1.30;99.90;;;;;;6699811;88;20431;-75
2021/01/31 18:53:24;;;;;;;15.05;7.53;;;1.40;99.90;;;;;;6694165;88;20759;-74
2021/01/31 19:03:24;;;;;;;17.25;7.87;;;1.40;99.90;;;;;;6694294;88;20254;-76
2021/01/31 19:13:25;;;;;;;19.25;8.15;;;1.50;99.90;;;;;;6697587;88;20198;-76
2021/01/31 19:23:25;;;;;;;17.85;7.60;;;1.50;99.90;;;;;;6691777;88;20219;-75
2021/01/31 19:33:26;;;;;;;21.77;8.57;;;1.50;99.90;;;;;;6692653;88;20224;-75
2021/01/31 19:43:27;;;;;;;17.70;6.65;;;1.50;99.90;;;;;;6691577;88;20205;-75
2021/01/31 19:53:27;;;;;;;20.33;8.90;;;1.50;99.90;;;;;;6690726;88;20764;-77
2021/01/31 20:03:28;;;;;;;18.45;8.50;;;1.40;99.90;;;;;;6693827;88;20238;-75
2021/01/31 20:13:29;;;;;;;18.42;7.85;;;1.40;99.90;;;;;;6694960;88;20240;-75
2021/01/31 20:23:29;;;;;;;17.23;8.60;;;1.50;99.90;;;;;;6699784;88;20728;-77
2021/01/31 20:33:30;;;;;;;18.40;7.20;;;1.50;99.90;;;;;;6693946;88;20199;-76
2021/01/31 20:43:30;;;;;;;19.80;7.87;;;1.60;99.90;;;;;;6697342;88;20313;-76
2021/01/31 20:53:31;;;;;;;15.68;6.50;;;1.70;99.90;;;;;;6696477;88;20637;-77
2021/01/31 21:03:31;;;;;;;15.55;7.00;;;1.70;99.90;;;;;;6691893;88;20238;-75
2021/01/31 21:13:32;;;;;;;14.53;6.37;;;1.70;99.90;;;;;;6694008;88;20197;-74
2021/01/31 21:23:33;;;;;;;15.77;6.60;;;1.70;99.90;;;;;;6704037;88;20582;-74
2021/01/31 21:33:33;;;;;;;13.85;6.05;;;1.60;99.90;;;;;;6705156;88;20437;-74
2021/01/31 21:43:34;;;;;;;19.20;7.93;;;1.70;99.90;;;;;;6697422;88;20195;-74
2021/01/31 21:53:34;;;;;;;15.98;7.25;;;1.60;99.90;;;;;;6697421;88;20637;-74
2021/01/31 22:03:35;;;;;;;16.90;7.50;;;1.70;99.90;;;;;;6694548;88;20348;-74
2021/01/31 22:13:35;;;;;;;16.10;7.05;;;1.70;99.90;;;;;;6693913;88;20439;-75
2021/01/31 22:23:36;;;;;;;16.60;7.30;;;1.70;99.90;;;;;;6693242;88;20586;-74
2021/01/31 22:33:38;;;;;;;18.67;8.13;;;1.70;99.90;;;;;;6692668;88;20178;-75
2021/01/31 22:43:38;;;;;;;16.12;7.45;;;1.70;99.90;;;;;;6700597;88;20241;-75
2021/01/31 22:53:39;;;;;;;14.60;6.97;;;1.70;99.90;;;;;;6697508;88;20630;-76
2021/01/31 23:03:41;;;;;;;14.35;6.12;;;1.80;99.90;;;;;;6693855;88;20355;-76
2021/01/31 23:13:41;;;;;;;14.90;6.03;;;1.80;99.90;;;;;;6699753;88;20500;-76
2021/01/31 23:23:42;;;;;;;15.18;7.62;;;1.90;99.90;;;;;;6697980;88;20236;-76
2021/01/31 23:33:43;;;;;;;13.13;6.60;;;1.90;99.90;;;;;;6695098;88;20287;-76
2021/01/31 23:43:43;;;;;;;16.12;7.15;;;2.00;99.90;;;;;;6700359;88;20199;-75
2021/01/31 23:53:44;;;;;;;17.27;8.00;;;2.00;99.90;;;;;;6697095;88;20774;-76
